createdAt,value
2018-05-19T00:02:26.175Z,24.07
2018-05-19T00:04:52.486Z,32.40
2018-05-19T00:07:18.776Z,28.00
2018-05-19T00:09:45.824Z,30.83
2018-05-19T00:12:12.888Z,26.70
2018-05-19T00:14:39.183Z,23.17
2018-05-19T00:17:05.492Z,31.57
2018-05-19T00:19:31.768Z,36.70
2018-05-19T00:21:58.128Z,29.93
2018-05-19T00:24:24.503Z,29.30
2018-05-19T00:26:50.803Z,25.20
2018-05-19T00:29:17.078Z,27.67
2018-05-19T00:31:44.132Z,26.77
2018-05-19T00:34:11.181Z,27.53
2018-05-19T00:36:42.776Z,27.10
2018-05-19T00:39:09.113Z,32.53
2018-05-19T00:41:35.510Z,25.33
2018-05-19T00:44:01.889Z,22.35
2018-05-19T00:46:30.032Z,21.40
2018-05-19T00:48:56.352Z,26.00
2018-05-19T00:51:22.675Z,21.87
2018-05-19T00:53:49.019Z,21.20
2018-05-19T00:56:15.370Z,27.87
2018-05-19T00:58:41.688Z,24.00
2018-05-19T01:01:08.757Z,29.55
2018-05-19T01:03:35.092Z,27.50
2018-05-19T01:06:02.424Z,39.77
2018-05-19T01:08:29.743Z,33.77
2018-05-19T01:10:57.164Z,34.53
2018-05-19T01:13:23.504Z,30.73
2018-05-19T01:15:49.827Z,29.80
2018-05-19T01:18:16.152Z,33.63
2018-05-19T01:20:42.567Z,28.87
2018-05-19T01:23:09.571Z,26.40
2018-05-19T01:25:35.875Z,30.52
2018-05-19T01:28:02.959Z,33.92
2018-05-19T01:30:29.303Z,36.10
2018-05-19T01:32:55.610Z,22.33
2018-05-19T01:35:21.933Z,27.35
2018-05-19T01:37:48.263Z,32.00
2018-05-19T01:40:14.573Z,33.83
2018-05-19T01:42:41.648Z,31.25
2018-05-19T01:45:07.989Z,25.55
2018-05-19T01:47:34.308Z,26.08
2018-05-19T01:50:01.691Z,27.15
2018-05-19T01:52:28.027Z,23.83
2018-05-19T01:54:54.371Z,40.92
2018-05-19T01:57:20.712Z,30.25
2018-05-19T01:59:47.032Z,28.08
2018-05-19T02:02:13.358Z,29.20
2018-05-19T02:04:39.699Z,36.58
2018-05-19T02:07:06.072Z,30.48
2018-05-19T02:09:32.441Z,21.65
2018-05-19T02:11:58.758Z,24.73
2018-05-19T02:14:25.099Z,34.25
2018-05-19T02:16:51.439Z,27.17
2018-05-19T02:19:17.759Z,25.60
2018-05-19T02:21:44.079Z,29.52
2018-05-19T02:24:10.383Z,21.75
2018-05-19T02:26:36.711Z,25.23
2018-05-19T02:29:03.039Z,36.60
2018-05-19T02:31:29.388Z,28.40
2018-05-19T02:33:55.699Z,25.52
2018-05-19T02:36:22.028Z,24.12
2018-05-19T02:38:48.332Z,34.22
2018-05-19T02:41:14.658Z,29.10
2018-05-19T02:43:40.973Z,32.65
2018-05-19T02:46:07.328Z,33.28
2018-05-19T02:48:34.399Z,29.80
2018-05-19T02:51:00.711Z,23.17
2018-05-19T02:53:27.767Z,23.38
2018-05-19T02:55:55.831Z,26.75
2018-05-19T02:58:22.886Z,22.08
2018-05-19T03:00:49.217Z,24.27
2018-05-19T03:03:16.268Z,23.30
2018-05-19T03:05:42.605Z,22.75
2018-05-19T03:08:08.932Z,27.95
2018-05-19T03:10:35.251Z,33.65
2018-05-19T03:13:02.332Z,27.67
2018-05-19T03:15:28.662Z,26.65
2018-05-19T03:17:54.975Z,31.12
2018-05-19T03:20:21.313Z,27.80
2018-05-19T03:22:47.631Z,25.77
2018-05-19T03:25:14.688Z,27.95
2018-05-19T03:27:41.005Z,33.33
2018-05-19T03:30:07.321Z,33.53
2018-05-19T03:32:35.394Z,28.75
2018-05-19T03:35:02.498Z,27.42
2018-05-19T03:37:28.843Z,30.92
2018-05-19T03:39:55.235Z,26.35
2018-05-19T03:42:21.544Z,33.88
2018-05-19T03:44:47.887Z,30.48
2018-05-19T03:47:14.184Z,43.08
2018-05-19T03:49:41.283Z,28.73
2018-05-19T03:52:08.603Z,31.00
2018-05-19T03:54:35.656Z,30.45
2018-05-19T03:57:14.182Z,25.90
2018-05-19T03:59:52.720Z,27.17
2018-05-19T04:02:31.117Z,23.90
2018-05-19T04:04:57.477Z,30.42
2018-05-19T04:07:24.780Z,24.73
2018-05-19T04:09:51.861Z,27.17
2018-05-19T04:12:18.172Z,28.50
2018-05-19T04:14:45.255Z,23.65
2018-05-19T04:17:11.588Z,23.87
2018-05-19T04:19:37.900Z,28.75
2018-05-19T04:22:04.233Z,29.95
2018-05-19T04:24:30.559Z,38.28
2018-05-19T04:26:57.623Z,31.80
2018-05-19T04:29:23.941Z,22.85
2018-05-19T04:31:50.268Z,20.77
2018-05-19T04:34:16.579Z,26.48
2018-05-19T04:36:42.895Z,20.75
2018-05-19T04:39:09.199Z,23.98
2018-05-19T04:41:35.533Z,21.08
2018-05-19T04:44:02.601Z,29.70
2018-05-19T04:46:29.120Z,27.48
2018-05-19T04:48:56.169Z,25.17
2018-05-19T04:51:23.232Z,23.10
2018-05-19T04:53:49.553Z,27.80
2018-05-19T04:56:16.617Z,24.87
2018-05-19T04:58:42.949Z,43.72
2018-05-19T05:01:09.264Z,22.83
2018-05-19T05:03:35.575Z,20.25
2018-05-19T05:06:02.643Z,22.48
2018-05-19T05:08:28.991Z,19.83
2018-05-19T05:10:55.321Z,25.02
2018-05-19T05:13:21.632Z,20.95
2018-05-19T05:15:47.935Z,28.02
2018-05-19T05:18:14.254Z,24.57
2018-05-19T05:20:40.560Z,23.42
2018-05-19T05:23:06.883Z,26.55
2018-05-19T05:25:33.215Z,26.50
2018-05-19T05:27:59.552Z,27.52
2018-05-19T05:30:25.876Z,23.60
2018-05-19T05:32:52.200Z,21.70
2018-05-19T05:35:19.515Z,21.83
2018-05-19T05:37:46.687Z,25.87
2018-05-19T05:40:12.912Z,28.57
2018-05-19T05:42:39.227Z,30.20
2018-05-19T05:45:06.320Z,33.30
2018-05-19T05:47:32.647Z,24.57
2018-05-19T05:49:58.979Z,27.87
2018-05-19T05:52:25.348Z,24.57
2018-05-19T05:54:51.659Z,25.60
2018-05-19T05:57:17.972Z,24.50
2018-05-19T05:59:44.333Z,19.90
2018-05-19T06:02:10.644Z,21.20
2018-05-19T06:04:36.988Z,23.07
2018-05-19T06:07:04.327Z,22.67
2018-05-19T06:09:30.723Z,26.57
2018-05-19T06:11:56.972Z,24.40
2018-05-19T06:14:23.327Z,23.60
2018-05-19T06:16:49.645Z,20.33
2018-05-19T06:19:15.961Z,22.60
2018-05-19T06:24:46.293Z,23.20
2018-05-19T06:27:12.580Z,22.37
2018-05-19T06:29:38.891Z,17.80
2018-05-19T06:32:05.933Z,26.07
2018-05-19T06:34:32.949Z,22.10
2018-05-19T06:36:59.232Z,27.13
2018-05-19T06:39:25.513Z,20.80
2018-05-19T06:41:51.805Z,18.60
2018-05-19T06:44:19.440Z,24.50
2018-05-19T06:46:46.464Z,19.20
2018-05-19T06:49:12.762Z,22.27
2018-05-19T06:51:39.068Z,19.47
2018-05-19T06:54:05.454Z,22.30
2018-05-19T06:56:31.769Z,17.83
2018-05-19T06:58:58.077Z,17.57
2018-05-19T07:01:24.388Z,24.73
2018-05-19T07:03:50.672Z,19.17
2018-05-19T07:06:16.936Z,17.97
2018-05-19T07:08:43.984Z,18.60
2018-05-19T07:11:13.116Z,18.93
2018-05-19T07:13:40.214Z,21.93
2018-05-19T07:16:06.493Z,20.13
2018-05-19T07:18:32.787Z,20.17
2018-05-19T07:20:59.820Z,16.30
2018-05-19T07:23:26.108Z,18.97
2018-05-19T07:25:52.417Z,17.93
2018-05-19T07:28:18.704Z,19.53
2018-05-19T07:30:44.987Z,21.27
2018-05-19T07:33:11.301Z,19.90
2018-05-19T07:35:37.639Z,19.23
2018-05-19T07:38:04.656Z,17.57
2018-05-19T07:40:31.984Z,17.37
2018-05-19T07:42:58.272Z,19.17
2018-05-19T07:45:24.604Z,19.13
2018-05-19T07:47:50.904Z,21.10
2018-05-19T07:50:17.228Z,18.60
2018-05-19T07:52:43.524Z,18.63
2018-05-19T07:55:09.853Z,19.37
2018-05-19T07:57:36.146Z,17.07
2018-05-19T08:00:03.220Z,18.40
2018-05-19T08:02:30.283Z,20.00
2018-05-19T08:04:56.571Z,21.20
2018-05-19T08:07:24.618Z,20.83
2018-05-19T08:09:50.944Z,20.33
2018-05-19T08:12:17.240Z,16.40
2018-05-19T08:14:43.529Z,16.40
2018-05-19T08:17:10.594Z,19.40
2018-05-19T08:19:37.612Z,19.37
2018-05-19T08:22:03.917Z,17.40
2018-05-19T08:24:30.219Z,17.03
2018-05-19T08:26:56.536Z,19.47
2018-05-19T08:29:22.812Z,19.50
2018-05-19T08:31:52.182Z,21.87
2018-05-19T08:34:18.490Z,18.73
2018-05-19T08:36:45.497Z,16.80
2018-05-19T08:39:11.842Z,17.70
2018-05-19T08:41:38.123Z,16.13
2018-05-19T08:44:04.457Z,17.20
2018-05-19T08:46:30.802Z,17.13
2018-05-19T08:48:57.074Z,22.07
2018-05-19T08:51:23.357Z,14.23
2018-05-19T08:53:49.641Z,13.13
2018-05-19T08:56:16.677Z,14.53
2018-05-19T08:58:42.985Z,16.30
2018-05-19T09:01:09.260Z,13.87
2018-05-19T09:03:36.310Z,13.63
2018-05-19T09:06:03.328Z,15.23
2018-05-19T09:08:30.663Z,14.57
2018-05-19T09:10:56.989Z,15.10
2018-05-19T09:13:23.263Z,17.53
2018-05-19T09:15:49.573Z,19.20
2018-05-19T09:18:16.879Z,15.50
2018-05-19T09:20:43.168Z,14.80
2018-05-19T09:23:09.548Z,14.50
2018-05-19T09:25:35.736Z,13.63
2018-05-19T09:28:02.056Z,15.30
2018-05-19T09:30:28.337Z,16.33
2018-05-19T09:32:54.660Z,13.50
2018-05-19T09:35:20.956Z,14.33
2018-05-19T09:37:47.249Z,15.17
2018-05-19T09:40:13.544Z,15.27
2018-05-19T09:42:40.565Z,14.73
2018-05-19T09:45:06.854Z,14.57
2018-05-19T09:47:33.213Z,12.83
2018-05-19T09:49:59.461Z,22.67
2018-05-19T09:52:25.804Z,12.90
2018-05-19T09:54:52.812Z,16.27
2018-05-19T09:57:19.121Z,11.77
2018-05-19T09:59:45.409Z,16.63
2018-05-19T10:02:11.693Z,13.20
2018-05-19T10:04:37.979Z,11.20
2018-05-19T10:07:05.032Z,15.10
2018-05-19T10:09:32.112Z,12.80
2018-05-19T10:11:58.414Z,12.93
2018-05-19T10:14:25.460Z,14.57
2018-05-19T10:16:53.295Z,11.50
2018-05-19T10:19:19.600Z,15.10
2018-05-19T10:21:45.882Z,13.50
2018-05-19T10:24:12.936Z,12.80
2018-05-19T10:26:40.597Z,15.07
2018-05-19T10:29:06.912Z,12.80
2018-05-19T10:31:33.205Z,16.17
2018-05-19T10:33:59.553Z,19.10
2018-05-19T10:36:25.877Z,11.13
2018-05-19T10:38:52.181Z,15.23
2018-05-19T10:41:18.469Z,13.33
2018-05-19T10:43:44.760Z,13.27
2018-05-19T10:46:11.046Z,13.90
2018-05-19T10:48:39.173Z,14.10
2018-05-19T10:51:05.459Z,13.70
2018-05-19T10:53:31.780Z,16.63
2018-05-19T10:55:58.792Z,16.13
2018-05-19T10:58:25.085Z,19.77
2018-05-19T11:00:51.377Z,16.93
2018-05-19T11:03:18.420Z,16.43
2018-05-19T11:05:44.721Z,13.73
2018-05-19T11:08:11.042Z,12.13
2018-05-19T11:10:37.320Z,13.83
2018-05-19T11:13:04.349Z,12.93
2018-05-19T11:15:30.636Z,11.53
2018-05-19T11:17:56.908Z,12.13
2018-05-19T11:20:23.169Z,11.30
2018-05-19T11:22:50.196Z,10.93
2018-05-19T11:25:16.465Z,12.03
2018-05-19T11:27:42.749Z,11.50
2018-05-19T11:30:09.040Z,9.67
2018-05-19T11:32:35.301Z,9.63
2018-05-19T11:35:01.622Z,11.83
2018-05-19T11:37:27.895Z,14.67
2018-05-19T11:39:54.959Z,14.60
2018-05-19T11:42:21.224Z,11.23
2018-05-19T11:44:47.528Z,11.93
2018-05-19T11:47:13.819Z,12.63
2018-05-19T11:49:40.568Z,11.63
2018-05-19T11:52:06.837Z,10.27
2018-05-19T11:54:33.124Z,11.13
2018-05-19T11:56:59.409Z,10.50
2018-05-19T11:59:25.735Z,10.30
2018-05-19T12:01:51.987Z,15.03
2018-05-19T12:04:18.270Z,11.63
2018-05-19T12:06:45.304Z,10.20
2018-05-19T12:09:12.352Z,10.83
2018-05-19T12:11:39.372Z,11.37
2018-05-19T12:14:05.694Z,11.03
2018-05-19T12:16:32.838Z,10.23
2018-05-19T12:18:59.122Z,11.03
2018-05-19T12:21:26.144Z,12.63
2018-05-19T12:23:52.436Z,11.63
2018-05-19T12:26:18.716Z,10.47
2018-05-19T12:28:45.749Z,9.63
2018-05-19T12:31:12.025Z,10.60
2018-05-19T12:33:38.331Z,11.50
2018-05-19T12:36:06.357Z,11.83
2018-05-19T12:38:33.713Z,9.20
2018-05-19T12:41:00.009Z,9.63
2018-05-19T12:43:26.342Z,9.43
2018-05-19T12:45:53.361Z,9.80
2018-05-19T12:48:19.725Z,9.67
2018-05-19T12:50:45.992Z,11.03
2018-05-19T12:53:12.271Z,10.33
2018-05-19T12:55:39.273Z,9.53
2018-05-19T12:58:05.649Z,9.93
2018-05-19T13:00:33.660Z,11.10
2018-05-19T13:02:59.996Z,10.43
2018-05-19T13:05:27.394Z,10.10
2018-05-19T13:07:54.862Z,11.73
2018-05-19T13:10:21.880Z,10.57
2018-05-19T13:12:48.192Z,9.50
2018-05-19T13:15:14.476Z,9.23
2018-05-19T13:17:41.567Z,8.27
2018-05-19T13:20:07.849Z,9.53
2018-05-19T13:22:35.911Z,9.80
2018-05-19T13:25:02.203Z,10.00
2018-05-19T13:27:29.541Z,13.10
2018-05-19T13:29:55.809Z,10.47
2018-05-19T13:32:23.084Z,9.83
2018-05-19T13:34:50.106Z,12.07
2018-05-19T13:37:16.372Z,14.80
2018-05-19T13:39:43.405Z,12.60
2018-05-19T13:42:09.691Z,11.63
2018-05-19T13:44:36.000Z,12.53
2018-05-19T13:47:02.396Z,12.60
2018-05-19T13:49:29.720Z,12.77
2018-05-19T13:51:55.976Z,10.90
2018-05-19T13:54:22.262Z,10.33
2018-05-19T13:56:48.548Z,10.33
2018-05-19T13:59:14.872Z,10.90
2018-05-19T14:01:41.164Z,9.87
2018-05-19T14:04:07.456Z,20.53
2018-05-19T14:06:34.489Z,9.83
2018-05-19T14:09:01.536Z,8.73
2018-05-19T14:11:28.560Z,9.03
2018-05-19T14:13:54.864Z,8.37
2018-05-19T14:16:21.131Z,9.10
2018-05-19T14:18:47.425Z,8.20
2018-05-19T14:21:13.689Z,9.33
2018-05-19T14:23:39.998Z,12.63
2018-05-19T14:26:06.273Z,9.13
2018-05-19T14:28:33.341Z,9.60
2018-05-19T14:30:59.619Z,11.53
2018-05-19T14:33:25.913Z,15.53
2018-05-19T14:35:52.200Z,10.57
2018-05-19T14:38:18.504Z,12.20
2018-05-19T14:40:44.777Z,10.30
2018-05-19T14:43:11.810Z,9.07
2018-05-19T14:45:38.093Z,10.00
2018-05-19T14:48:04.378Z,10.00
2018-05-19T14:50:31.412Z,10.20
2018-05-19T14:52:57.679Z,9.80
2018-05-19T14:55:23.956Z,10.37
2018-05-19T14:57:50.275Z,9.43
2018-05-19T15:00:16.537Z,11.00
2018-05-19T15:02:42.846Z,9.40
2018-05-19T15:05:09.135Z,9.53
2018-05-19T15:07:35.425Z,11.27
2018-05-19T15:10:01.724Z,9.37
2018-05-19T15:12:28.014Z,8.73
2018-05-19T15:14:55.015Z,8.87
2018-05-19T15:17:21.317Z,9.17
2018-05-19T15:19:47.620Z,4.87
2018-05-19T15:22:14.652Z,4.27
2018-05-19T15:24:40.933Z,4.63
2018-05-19T15:27:07.240Z,4.10
2018-05-19T15:29:33.564Z,4.53
2018-05-19T15:32:00.597Z,5.13
2018-05-19T15:34:27.616Z,5.50
2018-05-19T15:36:53.917Z,5.53
2018-05-19T15:39:21.075Z,8.70
2018-05-19T15:41:47.433Z,7.20
2018-05-19T15:44:13.725Z,6.30
2018-05-19T15:46:40.047Z,10.03
2018-05-19T15:49:06.685Z,9.33
2018-05-19T15:51:32.972Z,9.57
2018-05-19T15:53:59.268Z,8.97
2018-05-19T15:56:25.614Z,7.30
2018-05-19T15:58:51.885Z,7.73
2018-05-19T16:01:18.918Z,9.30
2018-05-19T16:03:45.561Z,7.90
2018-05-19T16:06:12.704Z,9.17
2018-05-19T16:08:39.070Z,9.80
2018-05-19T16:11:05.317Z,7.77
2018-05-19T16:13:31.591Z,10.60
2018-05-19T16:15:57.873Z,9.90
2018-05-19T16:18:24.154Z,10.60
2018-05-19T16:20:50.476Z,13.53
2018-05-19T16:23:17.540Z,9.87
2018-05-19T16:25:44.945Z,10.07
2018-05-19T16:28:11.233Z,11.10
2018-05-19T16:30:38.276Z,8.40
2018-05-19T16:33:04.569Z,10.07
2018-05-19T16:35:31.632Z,10.03
2018-05-19T16:37:57.908Z,11.00
2018-05-19T16:40:24.964Z,10.93
2018-05-19T16:42:51.972Z,9.83
2018-05-19T16:45:18.272Z,11.10
2018-05-19T16:47:44.552Z,13.20
2018-05-19T16:50:10.864Z,11.23
2018-05-19T16:52:37.135Z,9.70
2018-05-19T16:55:03.458Z,13.03
2018-05-19T16:57:30.496Z,9.90
2018-05-19T16:59:57.532Z,8.63
2018-05-19T17:02:23.828Z,9.47
2018-05-19T17:04:50.149Z,9.33
2018-05-19T17:07:16.420Z,11.80
2018-05-19T17:09:43.729Z,9.90
2018-05-19T17:12:10.067Z,10.33
2018-05-19T17:14:36.353Z,11.10
2018-05-19T17:17:03.388Z,11.33
2018-05-19T17:19:29.697Z,14.30
2018-05-19T17:21:56.033Z,9.93
2018-05-19T17:24:22.293Z,10.70
2018-05-19T17:26:49.318Z,10.73
2018-05-19T17:29:15.622Z,12.40
2018-05-19T17:31:41.933Z,10.07
2018-05-19T17:34:08.232Z,10.40
2018-05-19T17:36:34.502Z,11.90
2018-05-19T17:39:00.821Z,11.53
2018-05-19T17:41:27.119Z,21.13
2018-05-19T17:43:53.424Z,13.40
2018-05-19T17:46:19.709Z,11.13
2018-05-19T17:48:46.021Z,10.37
2018-05-19T17:51:13.076Z,10.03
2018-05-19T17:53:40.138Z,11.53
2018-05-19T17:56:06.461Z,12.30
2018-05-19T17:58:32.777Z,14.77
2018-05-19T18:00:59.836Z,13.13
2018-05-19T18:03:26.138Z,16.10
2018-05-19T18:05:52.473Z,11.80
2018-05-19T18:08:18.780Z,13.30
2018-05-19T18:10:45.072Z,13.67
2018-05-19T18:13:11.391Z,15.63
2018-05-19T18:15:37.701Z,16.73
2018-05-19T18:18:04.019Z,11.47
2018-05-19T18:20:30.344Z,12.07
2018-05-19T18:22:56.657Z,15.27
2018-05-19T18:25:22.984Z,13.83
2018-05-19T18:27:49.276Z,13.50
2018-05-19T18:30:16.317Z,13.40
2018-05-19T18:32:43.332Z,15.23
2018-05-19T18:35:09.645Z,17.33
2018-05-19T18:37:35.944Z,13.03
2018-05-19T18:40:03.023Z,13.07
2018-05-19T18:42:29.304Z,12.53
2018-05-19T18:44:56.345Z,17.27
2018-05-19T18:47:23.424Z,18.83
2018-05-19T18:49:49.724Z,15.20
2018-05-19T18:52:16.121Z,13.30
2018-05-19T18:54:54.662Z,15.47
2018-05-19T18:57:20.988Z,17.30
2018-05-19T18:59:47.294Z,14.33
2018-05-19T19:02:13.637Z,15.93
2018-05-19T19:04:39.978Z,18.37
2018-05-19T19:07:06.300Z,12.70
2018-05-19T19:09:32.605Z,15.43
2018-05-19T19:11:58.995Z,18.20
2018-05-19T19:14:25.298Z,13.63
2018-05-19T19:16:51.678Z,18.47
2018-05-19T19:19:18.769Z,23.77
2018-05-19T19:21:45.101Z,16.10
2018-05-19T19:24:11.425Z,13.30
2018-05-19T19:26:37.733Z,14.53
2018-05-19T19:29:04.151Z,14.17
2018-05-19T19:31:31.187Z,11.50
2018-05-19T19:33:58.247Z,14.57
2018-05-19T19:36:25.290Z,16.00
2018-05-19T19:38:51.630Z,18.00
2018-05-19T19:41:18.707Z,13.90
2018-05-19T19:43:45.758Z,14.60
2018-05-19T19:46:12.071Z,15.00
2018-05-19T19:48:39.104Z,15.70
2018-05-19T19:51:05.491Z,15.00
2018-05-19T19:53:31.812Z,16.50
2018-05-19T19:55:58.147Z,16.33
2018-05-19T19:58:24.441Z,16.83
2018-05-19T20:00:50.761Z,19.60
2018-05-19T20:03:17.839Z,17.60
2018-05-19T20:05:44.156Z,22.47
2018-05-19T20:08:11.220Z,18.57
2018-05-19T20:10:37.525Z,26.03
2018-05-19T20:13:04.572Z,25.77
2018-05-19T20:15:31.658Z,25.43
2018-05-19T20:17:57.976Z,20.43
2018-05-19T20:20:24.318Z,22.57
2018-05-19T20:22:50.635Z,19.87
2018-05-19T20:25:16.909Z,25.67
2018-05-19T20:27:43.253Z,25.77
2018-05-19T20:30:09.547Z,28.20
2018-05-19T20:32:35.852Z,28.77
2018-05-19T20:35:03.217Z,28.20
2018-05-19T20:37:29.592Z,31.60
2018-05-19T20:39:56.640Z,31.03
2018-05-19T20:42:22.968Z,25.40
2018-05-19T20:44:49.270Z,28.37
2018-05-19T20:47:15.599Z,30.30
2018-05-19T20:49:41.914Z,28.17
2018-05-19T20:52:08.253Z,33.93
2018-05-19T20:54:34.564Z,29.53
2018-05-19T20:57:01.700Z,23.30
2018-05-19T20:59:28.763Z,25.70
2018-05-19T21:01:55.102Z,29.80
2018-05-19T21:04:22.124Z,25.53
2018-05-19T21:06:48.458Z,29.73
2018-05-19T21:09:14.772Z,32.40
2018-05-19T21:11:41.116Z,28.73
2018-05-19T21:14:07.410Z,35.93
2018-05-19T21:16:33.757Z,31.50
2018-05-19T21:19:00.104Z,29.20
2018-05-19T21:21:26.442Z,30.90
2018-05-19T21:23:52.737Z,31.10
2018-05-19T21:26:19.031Z,32.30
2018-05-19T21:28:46.109Z,39.37
2018-05-19T21:31:12.433Z,33.33
2018-05-19T21:33:38.729Z,39.87
2018-05-19T21:36:05.785Z,52.87
2018-05-19T21:38:32.813Z,45.40
2018-05-19T21:40:59.128Z,46.47
2018-05-19T21:43:25.491Z,58.60
2018-05-19T21:45:51.776Z,40.03
2018-05-19T21:48:18.049Z,50.53
2018-05-19T21:50:45.100Z,43.97
2018-05-19T21:53:12.117Z,35.47
2018-05-19T21:55:38.446Z,40.53
2018-05-19T21:58:04.752Z,36.60
2018-05-19T22:00:31.087Z,37.70
2018-05-19T22:02:58.240Z,43.03
2018-05-19T22:05:24.564Z,37.13
2018-05-19T22:07:50.857Z,41.90
2018-05-19T22:10:17.184Z,39.83
2018-05-19T22:12:44.248Z,41.70
2018-05-19T22:15:10.577Z,34.33
2018-05-19T22:17:36.887Z,43.43
2018-05-19T22:20:03.966Z,42.60
2018-05-19T22:22:30.369Z,45.47
2018-05-19T22:24:57.382Z,37.03
2018-05-19T22:27:23.670Z,43.27
2018-05-19T22:29:49.993Z,33.23
2018-05-19T22:32:17.028Z,34.97
2018-05-19T22:34:43.344Z,40.43
2018-05-19T22:37:09.677Z,33.10
2018-05-19T22:39:37.029Z,40.70
2018-05-19T22:42:04.384Z,39.07
2018-05-19T22:44:31.730Z,31.80
2018-05-19T22:46:58.024Z,34.00
2018-05-19T22:49:24.333Z,34.27
2018-05-19T22:51:51.363Z,33.30
2018-05-19T22:54:17.707Z,31.50
2018-05-19T22:56:44.768Z,31.43
2018-05-19T22:59:11.823Z,29.03
2018-05-19T23:01:38.115Z,36.50
2018-05-19T23:04:05.247Z,30.10
2018-05-19T23:06:31.541Z,34.27
2018-05-19T23:08:57.860Z,40.27
2018-05-19T23:11:24.949Z,41.27
2018-05-19T23:13:51.258Z,37.10
2018-05-19T23:16:17.549Z,47.83
2018-05-19T23:18:43.857Z,42.10
2018-05-19T23:21:10.129Z,40.77
2018-05-19T23:23:37.200Z,41.63
2018-05-19T23:26:04.360Z,40.40
2018-05-19T23:28:30.685Z,42.40
2018-05-19T23:30:57.004Z,47.10
2018-05-19T23:33:23.338Z,49.43
2018-05-19T23:35:49.635Z,48.13
2018-05-19T23:38:16.700Z,45.57
2018-05-19T23:40:42.993Z,45.67
2018-05-19T23:43:09.300Z,49.90
2018-05-19T23:45:35.589Z,44.10
2018-05-19T23:48:02.666Z,41.27
2018-05-19T23:50:28.956Z,47.00
2018-05-19T23:52:55.269Z,41.63
2018-05-19T23:55:21.553Z,46.90
2018-05-19T23:57:47.864Z,40.03
